createdAt,value
2023-12-09T00:00:01.169Z,92.13
2023-12-09T00:01:10.981Z,92.05
2023-12-09T00:01:52.230Z,92.06
2023-12-09T00:02:39.005Z,92.27
2023-12-09T00:03:15.200Z,92.15
2023-12-09T00:04:02.148Z,91.92
2023-12-09T00:04:36.207Z,92.11
2023-12-09T00:05:23.009Z,91.74
2023-12-09T00:05:57.286Z,91.77
2023-12-09T00:06:37.096Z,91.82
2023-12-09T00:07:18.111Z,91.47
2023-12-09T00:07:58.013Z,91.79
2023-12-09T00:08:38.142Z,91.99
2023-12-09T00:09:19.039Z,91.29
2023-12-09T00:09:59.527Z,91.56
2023-12-09T00:10:39.978Z,91.60
2023-12-09T00:11:21.665Z,91.63
2023-12-09T00:12:02.051Z,91.97
2023-12-09T00:12:42.163Z,91.63
2023-12-09T00:13:22.043Z,91.39
2023-12-09T00:14:05.416Z,91.53
2023-12-09T00:14:47.003Z,91.77
2023-12-09T00:15:27.135Z,91.49
2023-12-09T00:16:08.003Z,91.54
2023-12-09T00:16:50.526Z,91.73
2023-12-09T00:17:31.016Z,91.64
2023-12-09T00:18:11.246Z,91.28
2023-12-09T00:18:52.154Z,91.17
2023-12-09T00:19:32.265Z,91.51
2023-12-09T00:20:14.020Z,91.61
2023-12-09T00:20:54.132Z,91.00
2023-12-09T00:21:35.038Z,91.31
2023-12-09T00:22:15.181Z,91.61
2023-12-09T00:22:56.996Z,91.24
2023-12-09T00:23:47.151Z,91.59
2023-12-09T00:24:29.061Z,91.50
2023-12-09T00:25:09.072Z,91.63
2023-12-09T00:25:49.980Z,91.21
2023-12-09T00:26:31.739Z,91.58
2023-12-09T00:27:13.039Z,91.38
2023-12-09T00:27:53.260Z,91.04
2023-12-09T00:28:33.995Z,91.59
2023-12-09T00:29:14.147Z,91.41
2023-12-09T00:29:54.082Z,91.24
2023-12-09T00:30:36.157Z,91.18
2023-12-09T00:31:16.964Z,90.85
2023-12-09T00:31:59.114Z,91.03
2023-12-09T00:32:38.996Z,90.84
2023-12-09T00:33:19.885Z,91.15
2023-12-09T00:34:01.148Z,91.28
2023-12-09T00:34:41.042Z,91.38
2023-12-09T00:35:21.986Z,90.65
2023-12-09T00:36:02.117Z,90.99
2023-12-09T00:36:42.950Z,91.09
2023-12-09T00:37:23.112Z,90.99
2023-12-09T00:38:02.950Z,91.11
2023-12-09T00:38:43.056Z,91.19
2023-12-09T00:39:24.049Z,90.98
2023-12-09T00:40:04.120Z,91.36
2023-12-09T00:40:43.958Z,91.24
2023-12-09T00:41:37.964Z,91.29
2023-12-09T00:42:32.034Z,91.36
2023-12-09T00:43:25.972Z,91.28
2023-12-09T00:44:19.946Z,91.16
2023-12-09T00:44:59.996Z,91.52
2023-12-09T00:45:40.094Z,91.26
2023-12-09T00:46:19.973Z,91.27
2023-12-09T00:47:00.066Z,90.96
2023-12-09T00:47:40.023Z,91.02
2023-12-09T00:48:20.168Z,91.31
2023-12-09T00:49:00.058Z,91.33
2023-12-09T00:49:40.167Z,91.42
2023-12-09T00:50:19.957Z,90.90
2023-12-09T00:51:01.177Z,91.61
2023-12-09T00:51:40.933Z,91.22
2023-12-09T00:52:21.045Z,91.34
2023-12-09T00:53:00.946Z,91.12
2023-12-09T00:53:41.101Z,91.25
2023-12-09T00:54:21.953Z,91.24
2023-12-09T00:55:02.141Z,91.11
2023-12-09T00:55:41.973Z,91.39
2023-12-09T00:56:33.514Z,91.00
2023-12-09T00:57:15.039Z,91.69
2023-12-09T00:57:55.024Z,91.45
2023-12-09T00:58:35.910Z,91.32
2023-12-09T00:59:16.041Z,91.22
2023-12-09T00:59:56.965Z,90.99
2023-12-09T01:00:37.109Z,91.35
2023-12-09T01:01:17.008Z,91.59
2023-12-09T01:01:57.034Z,91.35
2023-12-09T01:03:00.015Z,91.12
2023-12-09T01:03:54.079Z,90.71
2023-12-09T01:04:47.997Z,90.96
2023-12-09T01:05:41.945Z,90.41
2023-12-09T01:06:36.982Z,91.16
2023-12-09T01:07:30.946Z,91.29
2023-12-09T01:08:24.968Z,90.66
2023-12-09T01:09:18.997Z,90.37
2023-12-09T01:10:13.931Z,90.38
2023-12-09T01:11:08.910Z,90.88
2023-12-09T01:11:55.984Z,90.10
2023-12-09T01:12:31.462Z,91.11
2023-12-09T01:13:18.964Z,90.57
2023-12-09T01:13:53.070Z,90.77
2023-12-09T01:14:39.929Z,90.72
2023-12-09T01:15:14.158Z,90.79
2023-12-09T01:16:01.930Z,90.57
2023-12-09T01:16:36.025Z,90.85
2023-12-09T01:17:16.946Z,91.48
2023-12-09T01:17:57.296Z,90.93
2023-12-09T01:18:36.990Z,90.90
2023-12-09T01:19:17.089Z,90.28
2023-12-09T01:19:58.008Z,91.31
2023-12-09T01:20:38.420Z,90.90
2023-12-09T01:21:19.059Z,90.79
2023-12-09T01:22:00.209Z,90.86
2023-12-09T01:22:39.986Z,90.81
2023-12-09T01:23:20.002Z,90.98
2023-12-09T01:24:00.921Z,90.91
2023-12-09T01:24:41.010Z,91.07
2023-12-09T01:25:22.002Z,91.11
2023-12-09T01:26:02.051Z,91.31
2023-12-09T01:26:42.939Z,90.84
2023-12-09T01:27:23.110Z,90.76
2023-12-09T01:28:03.948Z,90.83
2023-12-09T01:28:45.371Z,91.02
2023-12-09T01:29:26.905Z,91.29
2023-12-09T01:30:07.074Z,91.60
2023-12-09T01:30:46.879Z,91.18
2023-12-09T01:31:27.032Z,91.19
2023-12-09T01:32:07.927Z,91.17
2023-12-09T01:32:49.097Z,91.12
2023-12-09T01:33:29.058Z,91.25
2023-12-09T01:34:09.089Z,91.43
2023-12-09T01:34:49.925Z,91.14
2023-12-09T01:35:30.065Z,91.35
2023-12-09T01:36:10.940Z,91.67
2023-12-09T01:36:51.031Z,91.74
2023-12-09T01:37:31.896Z,91.34
2023-12-09T01:38:13.014Z,91.66
2023-12-09T01:38:53.026Z,91.67
2023-12-09T01:39:34.130Z,92.01
2023-12-09T01:40:14.913Z,91.69
2023-12-09T01:41:02.021Z,92.13
2023-12-09T01:41:44.900Z,92.44
2023-12-09T01:42:25.332Z,91.75
2023-12-09T01:43:05.914Z,92.07
2023-12-09T01:43:45.996Z,91.91
2023-12-09T01:44:26.922Z,92.02
2023-12-09T01:45:07.079Z,92.18
2023-12-09T01:45:46.924Z,92.04
2023-12-09T01:46:28.033Z,92.30
2023-12-09T01:47:08.887Z,92.42
2023-12-09T01:47:50.206Z,91.80
2023-12-09T01:48:31.984Z,92.11
2023-12-09T01:49:15.171Z,92.17
2023-12-09T01:49:57.074Z,91.84
2023-12-09T01:50:38.155Z,91.67
2023-12-09T01:51:18.926Z,92.03
2023-12-09T01:52:00.042Z,92.05
2023-12-09T01:52:40.890Z,92.77
2023-12-09T01:53:20.964Z,92.40
2023-12-09T01:54:01.902Z,91.98
2023-12-09T01:54:41.979Z,91.89
2023-12-09T01:55:22.893Z,91.61
2023-12-09T01:56:06.100Z,92.10
2023-12-09T01:56:46.898Z,91.55
2023-12-09T01:57:27.007Z,92.52
2023-12-09T01:58:06.882Z,92.21
2023-12-09T01:58:48.049Z,92.03
2023-12-09T01:59:28.886Z,92.42
2023-12-09T02:00:11.036Z,92.27
2023-12-09T02:00:51.964Z,91.76
2023-12-09T02:01:32.955Z,92.23
2023-12-09T02:02:13.890Z,91.86
2023-12-09T02:02:54.056Z,91.87
2023-12-09T02:03:34.999Z,91.88
2023-12-09T02:04:15.096Z,91.67
2023-12-09T02:04:56.886Z,91.57
2023-12-09T02:05:36.966Z,91.67
2023-12-09T02:06:17.918Z,91.02
2023-12-09T02:06:58.030Z,91.70
2023-12-09T02:07:37.856Z,91.74
2023-12-09T02:08:17.970Z,91.43
2023-12-09T02:08:58.923Z,91.51
2023-12-09T02:09:40.678Z,91.74
2023-12-09T02:10:28.884Z,91.46
2023-12-09T02:11:35.893Z,91.14
2023-12-09T02:12:46.863Z,91.20
2023-12-09T02:14:14.917Z,91.19
2023-12-09T02:15:22.870Z,91.36
2023-12-09T02:16:30.879Z,91.40
2023-12-09T02:17:29.924Z,91.16
2023-12-09T02:18:16.152Z,91.14
2023-12-09T02:18:56.922Z,91.52
2023-12-09T02:19:38.218Z,91.54
2023-12-09T02:20:18.876Z,91.53
2023-12-09T02:20:59.015Z,91.57
2023-12-09T02:22:07.870Z,91.46
2023-12-09T02:22:47.877Z,91.70
2023-12-09T02:23:21.949Z,91.79
2023-12-09T02:24:08.888Z,91.30
2023-12-09T02:24:43.020Z,91.65
2023-12-09T02:25:29.863Z,91.36
2023-12-09T02:26:12.961Z,91.82
2023-12-09T02:27:01.890Z,91.87
2023-12-09T02:28:00.870Z,92.05
2023-12-09T02:29:00.850Z,92.08
2023-12-09T02:30:13.874Z,92.85
2023-12-09T02:31:32.887Z,92.90
2023-12-09T02:32:28.999Z,93.61
2023-12-09T02:33:17.107Z,93.13
2023-12-09T02:33:52.103Z,93.02
2023-12-09T02:34:39.910Z,93.14
2023-12-09T02:35:14.963Z,93.31
2023-12-09T02:36:02.875Z,92.65
2023-12-09T02:36:38.043Z,92.59
2023-12-09T02:37:27.871Z,93.11
2023-12-09T02:38:10.949Z,92.83
2023-12-09T02:38:51.925Z,93.23
2023-12-09T02:39:33.056Z,93.16
2023-12-09T02:40:17.861Z,93.47
2023-12-09T02:40:58.935Z,92.97
2023-12-09T02:41:39.825Z,92.97
2023-12-09T02:42:22.013Z,93.48
2023-12-09T02:43:01.849Z,93.58
2023-12-09T02:43:43.013Z,93.66
2023-12-09T02:44:22.923Z,93.78
2023-12-09T02:45:04.181Z,93.42
2023-12-09T02:45:44.830Z,93.16
2023-12-09T02:46:25.921Z,93.92
2023-12-09T02:47:05.823Z,93.52
2023-12-09T02:47:45.926Z,93.69
2023-12-09T02:48:25.932Z,93.97
2023-12-09T02:49:10.049Z,93.62
2023-12-09T02:49:50.976Z,94.04
2023-12-09T02:50:31.963Z,94.16
2023-12-09T02:51:12.853Z,93.64
2023-12-09T02:51:52.960Z,93.64
2023-12-09T02:52:32.843Z,94.01
2023-12-09T02:53:12.933Z,93.93
2023-12-09T02:53:52.867Z,93.73
2023-12-09T02:54:33.945Z,94.04
2023-12-09T02:55:15.839Z,94.25
2023-12-09T02:55:55.991Z,94.37
2023-12-09T02:56:35.854Z,94.24
2023-12-09T02:57:15.983Z,94.41
2023-12-09T02:57:56.821Z,93.95
2023-12-09T02:58:37.953Z,94.33
2023-12-09T02:59:17.816Z,94.44
2023-12-09T02:59:57.956Z,93.97
2023-12-09T03:00:37.879Z,93.73
2023-12-09T03:01:17.963Z,94.44
2023-12-09T03:01:57.831Z,94.78
2023-12-09T03:03:01.003Z,94.07
2023-12-09T03:03:48.907Z,94.10
2023-12-09T03:04:22.933Z,93.51
2023-12-09T03:05:09.856Z,94.51
2023-12-09T03:05:50.943Z,93.56
2023-12-09T03:06:44.802Z,93.46
2023-12-09T03:07:38.804Z,93.84
2023-12-09T03:08:32.775Z,94.29
2023-12-09T03:09:26.847Z,94.16
2023-12-09T03:10:21.823Z,94.38
2023-12-09T03:11:08.861Z,94.37
2023-12-09T03:11:42.913Z,94.24
2023-12-09T03:12:30.018Z,94.11
2023-12-09T03:13:03.954Z,94.25
2023-12-09T03:13:50.798Z,94.50
2023-12-09T03:14:24.975Z,94.67
2023-12-09T03:15:12.878Z,94.70
2023-12-09T03:15:46.934Z,94.66
2023-12-09T03:16:33.832Z,94.77
2023-12-09T03:17:07.904Z,95.74
2023-12-09T03:17:54.900Z,95.05
2023-12-09T03:18:29.021Z,95.69
2023-12-09T03:19:15.877Z,95.04
2023-12-09T03:19:49.987Z,95.48
2023-12-09T03:20:36.778Z,95.54
2023-12-09T03:21:10.967Z,95.86
2023-12-09T03:21:57.822Z,95.88
2023-12-09T03:22:31.927Z,95.38
2023-12-09T03:23:18.835Z,95.61
2023-12-09T03:23:52.944Z,95.54
2023-12-09T03:24:39.801Z,95.66
2023-12-09T03:25:13.971Z,95.23
2023-12-09T03:26:00.800Z,95.66
2023-12-09T03:26:34.879Z,95.72
2023-12-09T03:27:21.817Z,95.55
2023-12-09T03:27:56.634Z,95.70
2023-12-09T03:28:44.804Z,95.83
2023-12-09T03:29:19.044Z,95.83
2023-12-09T03:30:05.841Z,95.31
2023-12-09T03:30:40.022Z,95.81
2023-12-09T03:31:27.779Z,95.62
2023-12-09T03:32:01.903Z,95.34
2023-12-09T03:32:41.815Z,95.45
2023-12-09T03:33:22.025Z,95.47
2023-12-09T03:34:02.867Z,95.92
2023-12-09T03:34:42.886Z,95.59
2023-12-09T03:35:23.803Z,95.92
2023-12-09T03:36:04.049Z,95.35
2023-12-09T03:36:43.770Z,95.72
2023-12-09T03:37:23.902Z,95.84
2023-12-09T03:38:04.786Z,96.13
2023-12-09T03:38:44.869Z,96.25
2023-12-09T03:39:25.922Z,95.88
2023-12-09T03:40:05.909Z,96.25
2023-12-09T03:40:45.756Z,96.49
2023-12-09T03:41:26.352Z,96.54
2023-12-09T03:42:06.946Z,95.92
2023-12-09T03:42:46.894Z,96.52
2023-12-09T03:43:27.841Z,96.37
2023-12-09T03:44:08.883Z,95.67
2023-12-09T03:44:48.797Z,96.40
2023-12-09T03:45:28.923Z,96.88
2023-12-09T03:46:09.789Z,95.95
2023-12-09T03:46:49.852Z,96.28
2023-12-09T03:47:30.813Z,96.63
2023-12-09T03:48:11.972Z,96.32
2023-12-09T03:48:51.966Z,96.44
2023-12-09T03:49:31.966Z,96.66
2023-12-09T03:50:12.768Z,96.63
2023-12-09T03:50:52.989Z,96.61
2023-12-09T03:51:33.831Z,96.90
2023-12-09T03:52:16.548Z,97.73
2023-12-09T03:52:57.771Z,96.90
2023-12-09T03:53:37.844Z,97.06
2023-12-09T03:54:17.800Z,96.91
2023-12-09T03:54:57.867Z,97.34
2023-12-09T03:55:38.788Z,97.35
2023-12-09T03:56:18.932Z,97.40
2023-12-09T03:56:58.817Z,97.38
2023-12-09T03:57:39.006Z,97.80
2023-12-09T03:58:19.754Z,97.93
2023-12-09T03:59:00.330Z,97.22
2023-12-09T03:59:41.789Z,97.69
2023-12-09T04:00:23.731Z,97.55
2023-12-09T04:01:03.863Z,97.27
2023-12-09T04:01:43.856Z,96.88
2023-12-09T04:02:25.952Z,97.34
2023-12-09T04:03:07.160Z,97.53
2023-12-09T04:03:47.841Z,97.54
2023-12-09T04:04:27.928Z,97.23
2023-12-09T04:05:07.802Z,97.84
2023-12-09T04:05:48.946Z,98.35
2023-12-09T04:06:28.813Z,98.01
2023-12-09T04:07:08.922Z,97.91
2023-12-09T04:07:49.767Z,97.98
2023-12-09T04:08:29.852Z,98.35
2023-12-09T04:09:10.775Z,98.15
2023-12-09T04:09:50.928Z,98.21
2023-12-09T04:10:30.777Z,98.13
2023-12-09T04:11:11.852Z,97.52
2023-12-09T04:11:52.757Z,98.36
2023-12-09T04:12:32.875Z,98.38
2023-12-09T04:13:13.719Z,98.15
2023-12-09T04:13:53.819Z,98.65
2023-12-09T04:14:33.746Z,98.11
2023-12-09T04:15:15.969Z,98.42
2023-12-09T04:15:56.795Z,98.40
2023-12-09T04:16:36.879Z,98.21
2023-12-09T04:17:17.729Z,98.07
2023-12-09T04:17:58.039Z,98.34
2023-12-09T04:18:38.790Z,97.98
2023-12-09T04:19:18.974Z,97.95
2023-12-09T04:19:59.804Z,98.13
2023-12-09T04:20:39.877Z,98.45
2023-12-09T04:21:19.808Z,98.15
2023-12-09T04:21:59.850Z,98.17
2023-12-09T04:22:39.774Z,98.07
2023-12-09T04:23:22.436Z,98.37
2023-12-09T04:24:03.731Z,98.05
2023-12-09T04:24:44.140Z,98.08
2023-12-09T04:25:24.728Z,97.85
2023-12-09T04:26:05.917Z,97.83
2023-12-09T04:26:46.765Z,97.66
2023-12-09T04:27:26.884Z,97.80
2023-12-09T04:28:07.715Z,98.02
2023-12-09T04:28:48.194Z,98.74
2023-12-09T04:29:28.739Z,98.47
2023-12-09T04:30:10.451Z,98.37
2023-12-09T04:30:50.728Z,98.66
2023-12-09T04:31:30.857Z,98.92
2023-12-09T04:32:11.718Z,98.52
2023-12-09T04:32:51.880Z,98.77
2023-12-09T04:33:32.748Z,98.39
2023-12-09T04:34:12.908Z,98.66
2023-12-09T04:34:53.737Z,98.56
2023-12-09T04:35:33.842Z,98.30
2023-12-09T04:36:14.815Z,98.60
2023-12-09T04:36:54.868Z,98.51
2023-12-09T04:37:34.755Z,98.80
2023-12-09T04:38:15.101Z,98.67
2023-12-09T04:38:54.803Z,98.72
2023-12-09T04:39:34.843Z,98.44
2023-12-09T04:40:18.920Z,98.52
2023-12-09T04:40:59.865Z,98.58
2023-12-09T04:41:39.722Z,98.54
2023-12-09T04:42:19.851Z,98.92
2023-12-09T04:42:59.760Z,98.87
2023-12-09T04:43:39.991Z,98.24
2023-12-09T04:44:20.700Z,98.47
2023-12-09T04:45:00.829Z,98.53
2023-12-09T04:45:40.716Z,98.19
2023-12-09T04:46:20.836Z,98.87
2023-12-09T04:47:00.717Z,98.80
2023-12-09T04:47:41.959Z,98.81
2023-12-09T04:48:22.922Z,98.99
2023-12-09T04:49:04.101Z,99.32
2023-12-09T04:49:45.785Z,99.14
2023-12-09T04:50:25.910Z,99.03
2023-12-09T04:51:05.722Z,99.47
2023-12-09T04:51:45.799Z,99.07
2023-12-09T04:52:26.886Z,98.97
2023-12-09T04:53:08.048Z,99.34
2023-12-09T04:53:47.776Z,99.38
2023-12-09T04:54:27.816Z,99.28
2023-12-09T04:55:07.699Z,99.57
2023-12-09T04:55:48.824Z,99.39
2023-12-09T04:56:29.696Z,99.48
2023-12-09T04:57:09.871Z,99.63
2023-12-09T04:57:49.687Z,99.76
2023-12-09T04:58:29.780Z,99.57
2023-12-09T04:59:10.719Z,100.00
2023-12-09T04:59:50.900Z,100.00
2023-12-09T05:00:31.712Z,100.00
2023-12-09T05:01:11.829Z,100.00
2023-12-09T05:01:52.695Z,100.00
2023-12-09T05:03:04.842Z,100.00
2023-12-09T05:03:44.793Z,100.00
2023-12-09T05:04:25.765Z,100.00
2023-12-09T05:04:59.776Z,100.00
2023-12-09T05:05:46.724Z,100.00
2023-12-09T05:06:21.517Z,100.00
2023-12-09T05:07:08.690Z,100.00
2023-12-09T05:07:43.392Z,100.00
2023-12-09T05:08:30.678Z,100.00
2023-12-09T05:09:05.209Z,100.00
2023-12-09T05:09:45.747Z,100.00
2023-12-09T05:10:25.791Z,100.00
2023-12-09T05:11:05.716Z,100.00
2023-12-09T05:11:45.749Z,100.00
2023-12-09T05:12:26.931Z,100.00
2023-12-09T05:13:07.895Z,100.00
2023-12-09T05:13:47.689Z,100.00
2023-12-09T05:14:27.822Z,100.00
2023-12-09T05:15:07.715Z,100.00
2023-12-09T05:15:47.880Z,100.00
2023-12-09T05:16:28.671Z,100.00
2023-12-09T05:17:08.820Z,100.00
2023-12-09T05:17:48.711Z,100.00
2023-12-09T05:18:28.961Z,100.00
2023-12-09T05:19:08.835Z,100.00
2023-12-09T05:19:48.837Z,100.00
2023-12-09T05:20:29.680Z,100.00
2023-12-09T05:21:11.775Z,100.00
2023-12-09T05:21:51.682Z,100.00
2023-12-09T05:22:32.763Z,100.00
2023-12-09T05:23:13.659Z,100.00
2023-12-09T05:23:53.757Z,100.00
2023-12-09T05:24:34.717Z,100.00
2023-12-09T05:25:15.940Z,100.00
2023-12-09T05:25:57.715Z,100.00
2023-12-09T05:26:37.748Z,100.00
2023-12-09T05:27:17.734Z,100.00
2023-12-09T05:27:57.773Z,100.00
2023-12-09T05:28:38.671Z,100.00
2023-12-09T05:29:18.770Z,100.00
2023-12-09T05:30:00.753Z,100.00
2023-12-09T05:30:40.767Z,100.00
2023-12-09T05:31:20.674Z,100.00
2023-12-09T05:32:00.734Z,100.00
2023-12-09T05:32:41.707Z,100.00
2023-12-09T05:33:21.862Z,100.00
2023-12-09T05:34:01.768Z,100.00
2023-12-09T05:34:41.885Z,100.00
2023-12-09T05:35:22.647Z,100.00
2023-12-09T05:36:02.823Z,100.00
2023-12-09T05:36:45.664Z,100.00
2023-12-09T05:37:25.791Z,100.00
2023-12-09T05:38:05.733Z,100.00
2023-12-09T05:38:45.804Z,100.00
2023-12-09T05:39:26.741Z,100.00
2023-12-09T05:40:07.951Z,100.00
2023-12-09T05:40:48.656Z,100.00
2023-12-09T05:41:28.802Z,100.00
2023-12-09T05:42:09.707Z,100.00
2023-12-09T05:42:49.765Z,100.00
2023-12-09T05:43:29.638Z,100.00
2023-12-09T05:44:09.736Z,100.00
2023-12-09T05:44:50.626Z,100.00
2023-12-09T05:45:30.873Z,100.00
2023-12-09T05:46:11.644Z,100.00
2023-12-09T05:46:51.782Z,100.00
2023-12-09T05:47:32.722Z,100.00
2023-12-09T05:48:12.908Z,100.00
2023-12-09T05:48:55.767Z,100.00
2023-12-09T05:49:35.845Z,100.00
2023-12-09T05:50:17.654Z,100.00
2023-12-09T05:50:57.768Z,100.00
2023-12-09T05:51:37.803Z,100.00
2023-12-09T05:52:17.760Z,100.00
2023-12-09T05:53:00.643Z,100.00
2023-12-09T05:53:42.849Z,100.00
2023-12-09T05:54:22.666Z,100.00
2023-12-09T05:55:02.800Z,100.00
2023-12-09T05:55:42.653Z,100.00
2023-12-09T05:56:22.741Z,100.00
2023-12-09T05:57:03.622Z,100.00
2023-12-09T05:57:44.405Z,100.00
2023-12-09T05:58:25.711Z,100.00
2023-12-09T05:59:05.791Z,100.00
2023-12-09T05:59:45.624Z,100.00
2023-12-09T06:00:25.760Z,100.00
2023-12-09T06:01:07.645Z,100.00
2023-12-09T06:01:47.716Z,100.00
2023-12-09T06:02:27.980Z,100.00
2023-12-09T06:03:09.292Z,100.00
2023-12-09T06:03:49.632Z,100.00
2023-12-09T06:04:29.813Z,100.00
2023-12-09T06:05:10.631Z,100.00
2023-12-09T06:05:50.797Z,100.00
2023-12-09T06:06:30.769Z,100.00
2023-12-09T06:07:10.989Z,100.00
2023-12-09T06:07:51.628Z,100.00
2023-12-09T06:08:32.747Z,100.00
2023-12-09T06:09:14.666Z,100.00
2023-12-09T06:09:54.731Z,100.00
2023-12-09T06:10:35.617Z,100.00
2023-12-09T06:11:15.766Z,100.00
2023-12-09T06:11:55.684Z,100.00
2023-12-09T06:12:36.138Z,100.00
2023-12-09T06:13:17.620Z,100.00
2023-12-09T06:13:57.794Z,100.00
2023-12-09T06:14:37.620Z,100.00
2023-12-09T06:15:17.766Z,100.00
2023-12-09T06:15:57.584Z,100.00
2023-12-09T06:16:37.688Z,100.00
2023-12-09T06:17:18.607Z,100.00
2023-12-09T06:17:58.956Z,100.00
2023-12-09T06:18:38.684Z,100.00
2023-12-09T06:19:18.948Z,100.00
2023-12-09T06:19:58.665Z,100.00
2023-12-09T06:20:38.704Z,100.00
2023-12-09T06:21:32.636Z,100.00
2023-12-09T06:22:12.719Z,100.00
2023-12-09T06:22:52.605Z,100.00
2023-12-09T06:23:32.943Z,100.00
2023-12-09T06:24:14.775Z,100.00
2023-12-09T06:24:57.343Z,100.00
2023-12-09T06:25:38.640Z,100.00
2023-12-09T06:26:18.800Z,100.00
2023-12-09T06:26:58.657Z,100.00
2023-12-09T06:27:38.823Z,100.00
2023-12-09T06:28:18.589Z,100.00
2023-12-09T06:28:58.726Z,100.00
2023-12-09T06:29:39.621Z,100.00
2023-12-09T06:30:20.884Z,100.00
2023-12-09T06:31:01.643Z,100.00
2023-12-09T06:31:41.713Z,100.00
2023-12-09T06:32:21.612Z,100.00
2023-12-09T06:33:02.017Z,100.00
2023-12-09T06:33:43.820Z,100.00
2023-12-09T06:34:24.805Z,100.00
2023-12-09T06:35:04.608Z,100.00
2023-12-09T06:35:44.720Z,100.00
2023-12-09T06:36:24.680Z,100.00
2023-12-09T06:37:04.727Z,100.00
2023-12-09T06:37:45.693Z,100.00
2023-12-09T06:38:26.914Z,100.00
2023-12-09T06:39:07.642Z,100.00
2023-12-09T06:39:47.728Z,100.00
2023-12-09T06:40:30.584Z,100.00
2023-12-09T06:41:10.773Z,100.00
2023-12-09T06:41:51.615Z,100.00
2023-12-09T06:42:32.004Z,100.00
2023-12-09T06:43:12.563Z,100.00
2023-12-09T06:43:52.679Z,100.00
2023-12-09T06:44:33.584Z,100.00
2023-12-09T06:45:14.739Z,100.00
2023-12-09T06:45:55.594Z,100.00
2023-12-09T06:46:35.684Z,100.00
2023-12-09T06:47:20.589Z,100.00
2023-12-09T06:48:00.868Z,100.00
2023-12-09T06:48:40.651Z,100.00
2023-12-09T06:49:20.806Z,100.00
2023-12-09T06:50:01.564Z,100.00
2023-12-09T06:50:41.751Z,100.00
2023-12-09T06:51:24.681Z,100.00
2023-12-09T06:52:04.798Z,100.00
2023-12-09T06:52:45.581Z,100.00
2023-12-09T06:53:25.699Z,100.00
2023-12-09T06:54:07.595Z,100.00
2023-12-09T06:54:47.787Z,100.00
2023-12-09T06:55:27.593Z,100.00
2023-12-09T06:56:09.979Z,100.00
2023-12-09T06:56:51.570Z,100.00
2023-12-09T06:57:32.822Z,100.00
2023-12-09T06:58:13.587Z,100.00
2023-12-09T06:58:53.935Z,100.00
2023-12-09T06:59:34.564Z,100.00
2023-12-09T07:00:15.888Z,100.00
2023-12-09T07:00:56.629Z,100.00
2023-12-09T07:01:36.713Z,100.00
2023-12-09T07:02:17.608Z,100.00
2023-12-09T07:02:59.917Z,100.00
2023-12-09T07:03:40.737Z,100.00
2023-12-09T07:04:20.731Z,100.00
2023-12-09T07:05:01.593Z,100.00
2023-12-09T07:05:41.743Z,100.00
2023-12-09T07:06:30.600Z,100.00
2023-12-09T07:07:18.281Z,100.00
2023-12-09T07:08:01.560Z,100.00
2023-12-09T07:08:48.591Z,100.00
2023-12-09T07:09:42.576Z,100.00
2023-12-09T07:10:36.560Z,100.00
2023-12-09T07:11:31.562Z,100.00
2023-12-09T07:12:25.884Z,100.00
2023-12-09T07:13:20.555Z,100.00
2023-12-09T07:14:07.572Z,100.00
2023-12-09T07:14:41.664Z,100.00
2023-12-09T07:15:28.573Z,100.00
2023-12-09T07:16:03.683Z,100.00
2023-12-09T07:16:50.554Z,100.00
2023-12-09T07:17:24.773Z,100.00
2023-12-09T07:18:12.791Z,100.00
2023-12-09T07:19:01.236Z,100.00
2023-12-09T07:19:41.779Z,100.00
2023-12-09T07:20:21.720Z,100.00
2023-12-09T07:21:02.552Z,100.00
2023-12-09T07:21:42.666Z,100.00
2023-12-09T07:22:22.531Z,100.00
2023-12-09T07:23:02.669Z,100.00
2023-12-09T07:23:43.567Z,100.00
2023-12-09T07:24:23.771Z,100.00
2023-12-09T07:25:04.577Z,100.00
2023-12-09T07:25:44.664Z,100.00
2023-12-09T07:26:26.570Z,100.00
2023-12-09T07:27:06.651Z,100.00
2023-12-09T07:27:46.509Z,100.00
2023-12-09T07:28:26.688Z,100.00
2023-12-09T07:29:11.514Z,100.00
2023-12-09T07:29:51.643Z,100.00
2023-12-09T07:30:31.543Z,100.00
2023-12-09T07:31:11.625Z,100.00
2023-12-09T07:31:51.529Z,100.00
2023-12-09T07:32:31.890Z,100.00
2023-12-09T07:33:13.620Z,100.00
2023-12-09T07:33:54.364Z,100.00
2023-12-09T07:34:34.612Z,100.00
2023-12-09T07:35:18.168Z,100.00
2023-12-09T07:35:58.565Z,100.00
2023-12-09T07:36:38.700Z,100.00
2023-12-09T07:37:22.517Z,100.00
2023-12-09T07:38:02.648Z,100.00
2023-12-09T07:38:42.538Z,100.00
2023-12-09T07:39:23.111Z,100.00
2023-12-09T07:40:03.533Z,100.00
2023-12-09T07:40:43.611Z,100.00
2023-12-09T07:41:24.543Z,100.00
2023-12-09T07:42:18.629Z,100.00
2023-12-09T07:43:12.520Z,100.00
2023-12-09T07:44:06.569Z,100.00
2023-12-09T07:45:00.639Z,100.00
2023-12-09T07:45:54.515Z,100.00
2023-12-09T07:46:41.524Z,100.00
2023-12-09T07:47:15.722Z,100.00
2023-12-09T07:48:02.647Z,100.00
2023-12-09T07:48:36.743Z,100.00
2023-12-09T07:49:23.619Z,100.00
2023-12-09T07:49:57.678Z,100.00
2023-12-09T07:50:44.534Z,100.00
2023-12-09T07:51:18.683Z,100.00
2023-12-09T07:52:05.531Z,100.00
2023-12-09T07:52:39.595Z,100.00
2023-12-09T07:53:26.508Z,100.00
2023-12-09T07:54:00.632Z,100.00
2023-12-09T07:54:47.528Z,100.00
2023-12-09T07:55:21.585Z,100.00
2023-12-09T07:56:08.573Z,100.00
2023-12-09T07:56:42.604Z,100.00
2023-12-09T07:57:29.551Z,100.00
2023-12-09T07:58:03.630Z,100.00
2023-12-09T07:58:51.504Z,100.00
2023-12-09T07:59:25.608Z,100.00
2023-12-09T08:00:15.511Z,100.00
2023-12-09T08:00:49.660Z,100.00
2023-12-09T08:01:36.570Z,100.00
2023-12-09T08:02:10.684Z,100.00
2023-12-09T08:02:51.520Z,100.00
2023-12-09T08:03:34.249Z,100.00
2023-12-09T08:04:14.671Z,100.00
2023-12-09T08:04:55.631Z,100.00
2023-12-09T08:05:35.579Z,100.00
2023-12-09T08:06:15.686Z,100.00
2023-12-09T08:06:55.524Z,100.00
2023-12-09T08:07:35.607Z,100.00
2023-12-09T08:08:16.552Z,100.00
2023-12-09T08:08:57.668Z,100.00
2023-12-09T08:09:37.574Z,100.00
2023-12-09T08:10:17.692Z,100.00
2023-12-09T08:10:58.547Z,100.00
2023-12-09T08:11:38.573Z,100.00
2023-12-09T08:12:20.550Z,100.00
2023-12-09T08:13:04.638Z,100.00
2023-12-09T08:13:46.507Z,100.00
2023-12-09T08:14:26.600Z,100.00
2023-12-09T08:15:06.539Z,100.00
2023-12-09T08:15:46.585Z,100.00
2023-12-09T08:16:27.476Z,100.00
2023-12-09T08:17:07.609Z,100.00
2023-12-09T08:17:48.561Z,100.00
2023-12-09T08:18:28.701Z,100.00
2023-12-09T08:19:08.600Z,100.00
2023-12-09T08:19:48.677Z,100.00
2023-12-09T08:20:29.484Z,100.00
2023-12-09T08:21:10.085Z,100.00
2023-12-09T08:21:51.479Z,100.00
2023-12-09T08:22:31.596Z,100.00
2023-12-09T08:23:11.484Z,100.00
2023-12-09T08:23:51.592Z,100.00
2023-12-09T08:24:32.541Z,100.00
2023-12-09T08:25:14.667Z,100.00
2023-12-09T08:25:55.499Z,100.00
2023-12-09T08:26:38.299Z,100.00
2023-12-09T08:27:18.510Z,100.00
2023-12-09T08:27:59.021Z,100.00
2023-12-09T08:28:41.490Z,100.00
2023-12-09T08:29:21.781Z,100.00
2023-12-09T08:30:01.507Z,100.00
2023-12-09T08:30:41.634Z,100.00
2023-12-09T08:31:21.465Z,100.00
2023-12-09T08:32:01.557Z,100.00
2023-12-09T08:32:42.529Z,100.00
2023-12-09T08:33:22.744Z,100.00
2023-12-09T08:34:03.574Z,100.00
2023-12-09T08:34:48.855Z,100.00
2023-12-09T08:35:33.687Z,100.00
2023-12-09T08:36:15.668Z,100.00
2023-12-09T08:36:56.479Z,100.00
2023-12-09T08:37:36.583Z,100.00
2023-12-09T08:38:16.445Z,100.00
2023-12-09T08:38:56.644Z,100.00
2023-12-09T08:39:38.553Z,100.00
2023-12-09T08:40:19.603Z,100.00
2023-12-09T08:41:01.488Z,100.00
2023-12-09T08:41:35.769Z,100.00
2023-12-09T08:42:22.482Z,100.00
2023-12-09T08:42:56.283Z,100.00
2023-12-09T08:43:43.441Z,100.00
2023-12-09T08:44:17.217Z,100.00
2023-12-09T08:45:05.513Z,100.00
2023-12-09T08:45:39.252Z,100.00
2023-12-09T08:46:26.472Z,100.00
2023-12-09T08:47:01.629Z,100.00
2023-12-09T08:47:48.579Z,100.00
2023-12-09T08:48:22.417Z,100.00
2023-12-09T08:49:10.590Z,100.00
2023-12-09T08:49:44.787Z,100.00
2023-12-09T08:50:31.474Z,100.00
2023-12-09T08:51:05.528Z,100.00